sensor_id;sensor_type;location;lat;lon;timestamp;temperature;humidity
22813;DHT22;11573;51.334;3.244;2023-03-23T00:00:09;12.50;99.90
22813;DHT22;11573;51.334;3.244;2023-03-23T00:02:39;12.60;99.90
22813;DHT22;11573;51.334;3.244;2023-03-23T00:05:06;12.60;99.90
22813;DHT22;11573;51.334;3.244;2023-03-23T00:07:34;12.60;99.90
22813;DHT22;11573;51.334;3.244;2023-03-23T00:10:00;12.60;99.90
22813;DHT22;11573;51.334;3.244;2023-03-23T00:12:30;12.60;99.90
22813;DHT22;11573;51.334;3.244;2023-03-23T00:15:07;12.60;99.90
22813;DHT22;11573;51.334;3.244;2023-03-23T00:17:39;12.60;99.90
22813;DHT22;11573;51.334;3.244;2023-03-23T00:20:06;12.60;99.90
22813;DHT22;11573;51.334;3.244;2023-03-23T00:22:33;12.70;99.90
22813;DHT22;11573;51.334;3.244;2023-03-23T00:25:07;12.70;99.90
22813;DHT22;11573;51.334;3.244;2023-03-23T00:27:34;12.70;99.90
22813;DHT22;11573;51.334;3.244;2023-03-23T00:30:00;12.70;99.90
22813;DHT22;11573;51.334;3.244;2023-03-23T00:32:26;12.60;99.90
22813;DHT22;11573;51.334;3.244;2023-03-23T00:34:57;12.70;99.90
22813;DHT22;11573;51.334;3.244;2023-03-23T00:37:25;12.70;99.90
22813;DHT22;11573;51.334;3.244;2023-03-23T00:39:51;12.70;99.90
22813;DHT22;11573;51.334;3.244;2023-03-23T00:42:17;12.70;99.90
22813;DHT22;11573;51.334;3.244;2023-03-23T00:44:43;12.70;99.90
22813;DHT22;11573;51.334;3.244;2023-03-23T00:47:10;12.70;99.90
22813;DHT22;11573;51.334;3.244;2023-03-23T00:49:37;12.60;99.90
22813;DHT22;11573;51.334;3.244;2023-03-23T00:52:05;12.60;99.90
22813;DHT22;11573;51.334;3.244;2023-03-23T00:54:32;12.60;99.90
22813;DHT22;11573;51.334;3.244;2023-03-23T00:56:59;12.60;99.90
22813;DHT22;11573;51.334;3.244;2023-03-23T00:59:26;12.60;99.90
22813;DHT22;11573;51.334;3.244;2023-03-23T01:01:51;12.60;99.90
22813;DHT22;11573;51.334;3.244;2023-03-23T01:04:18;12.60;99.90
22813;DHT22;11573;51.334;3.244;2023-03-23T01:06:48;12.60;99.90
22813;DHT22;11573;51.334;3.244;2023-03-23T01:09:17;12.60;99.90
22813;DHT22;11573;51.334;3.244;2023-03-23T01:11:48;12.60;99.90
22813;DHT22;11573;51.334;3.244;2023-03-23T01:14:16;12.60;99.90
22813;DHT22;11573;51.334;3.244;2023-03-23T01:16:42;12.60;99.90
22813;DHT22;11573;51.334;3.244;2023-03-23T01:19:08;12.60;99.90
22813;DHT22;11573;51.334;3.244;2023-03-23T01:21:34;12.60;99.90
22813;DHT22;11573;51.334;3.244;2023-03-23T01:24:01;12.60;99.90
22813;DHT22;11573;51.334;3.244;2023-03-23T01:26:28;12.60;99.90
22813;DHT22;11573;51.334;3.244;2023-03-23T01:28:54;12.60;99.90
22813;DHT22;11573;51.334;3.244;2023-03-23T01:31:23;12.60;99.90
22813;DHT22;11573;51.334;3.244;2023-03-23T01:33:50;12.60;99.90
22813;DHT22;11573;51.334;3.244;2023-03-23T01:36:20;12.60;99.90
22813;DHT22;11573;51.334;3.244;2023-03-23T01:38:48;12.60;99.90
22813;DHT22;11573;51.334;3.244;2023-03-23T01:41:16;12.60;99.90
22813;DHT22;11573;51.334;3.244;2023-03-23T01:43:59;12.60;99.90
22813;DHT22;11573;51.334;3.244;2023-03-23T01:46:30;12.60;99.90
22813;DHT22;11573;51.334;3.244;2023-03-23T01:48:59;12.70;99.90
22813;DHT22;11573;51.334;3.244;2023-03-23T01:51:27;12.70;99.90
22813;DHT22;11573;51.334;3.244;2023-03-23T01:53:56;12.60;99.90
22813;DHT22;11573;51.334;3.244;2023-03-23T01:56:27;12.70;99.90
22813;DHT22;11573;51.334;3.244;2023-03-23T01:58:58;12.60;99.90
22813;DHT22;11573;51.334;3.244;2023-03-23T02:01:25;12.60;99.90
22813;DHT22;11573;51.334;3.244;2023-03-23T02:03:54;12.60;99.90
22813;DHT22;11573;51.334;3.244;2023-03-23T02:06:21;12.60;99.90
22813;DHT22;11573;51.334;3.244;2023-03-23T02:09:05;12.60;99.90
22813;DHT22;11573;51.334;3.244;2023-03-23T02:11:34;12.60;99.90
22813;DHT22;11573;51.334;3.244;2023-03-23T02:14:01;12.60;99.90
22813;DHT22;11573;51.334;3.244;2023-03-23T02:30:53;12.50;99.90
22813;DHT22;11573;51.334;3.244;2023-03-23T02:36:38;12.50;99.90
22813;DHT22;11573;51.334;3.244;2023-03-23T02:39:21;12.50;99.90
22813;DHT22;11573;51.334;3.244;2023-03-23T02:41:56;12.50;99.90
22813;DHT22;11573;51.334;3.244;2023-03-23T02:44:24;12.40;99.90
22813;DHT22;11573;51.334;3.244;2023-03-23T02:46:57;12.40;99.90
22813;DHT22;11573;51.334;3.244;2023-03-23T02:49:26;12.40;99.90
22813;DHT22;11573;51.334;3.244;2023-03-23T02:51:56;12.40;99.90
22813;DHT22;11573;51.334;3.244;2023-03-23T02:54:26;12.40;99.90
22813;DHT22;11573;51.334;3.244;2023-03-23T02:56:54;12.40;99.90
22813;DHT22;11573;51.334;3.244;2023-03-23T02:59:26;12.40;99.90
22813;DHT22;11573;51.334;3.244;2023-03-23T03:01:59;12.40;99.90
22813;DHT22;11573;51.334;3.244;2023-03-23T03:04:28;12.40;99.90
22813;DHT22;11573;51.334;3.244;2023-03-23T03:10:55;12.40;99.90
22813;DHT22;11573;51.334;3.244;2023-03-23T03:21:10;12.40;99.90
22813;DHT22;11573;51.334;3.244;2023-03-23T03:23:41;12.40;99.90
22813;DHT22;11573;51.334;3.244;2023-03-23T03:26:10;12.50;99.90
22813;DHT22;11573;51.334;3.244;2023-03-23T03:28:47;12.50;99.90
22813;DHT22;11573;51.334;3.244;2023-03-23T03:31:18;12.50;99.90
22813;DHT22;11573;51.334;3.244;2023-03-23T03:33:45;12.40;99.90
22813;DHT22;11573;51.334;3.244;2023-03-23T03:36:18;12.40;99.90
22813;DHT22;11573;51.334;3.244;2023-03-23T03:38:48;12.40;99.90
22813;DHT22;11573;51.334;3.244;2023-03-23T03:41:16;12.40;99.90
22813;DHT22;11573;51.334;3.244;2023-03-23T03:43:42;12.30;99.90
22813;DHT22;11573;51.334;3.244;2023-03-23T03:46:08;12.30;99.90
22813;DHT22;11573;51.334;3.244;2023-03-23T03:48:34;12.30;99.90
22813;DHT22;11573;51.334;3.244;2023-03-23T03:51:00;12.30;99.90
22813;DHT22;11573;51.334;3.244;2023-03-23T03:53:31;12.30;99.90
22813;DHT22;11573;51.334;3.244;2023-03-23T03:55:57;12.30;99.90
22813;DHT22;11573;51.334;3.244;2023-03-23T03:58:30;12.30;99.90
22813;DHT22;11573;51.334;3.244;2023-03-23T04:01:12;12.30;99.90
22813;DHT22;11573;51.334;3.244;2023-03-23T04:03:40;12.30;99.90
22813;DHT22;11573;51.334;3.244;2023-03-23T04:06:17;12.30;99.90
22813;DHT22;11573;51.334;3.244;2023-03-23T04:08:44;12.30;99.90
22813;DHT22;11573;51.334;3.244;2023-03-23T04:11:13;12.30;99.90
22813;DHT22;11573;51.334;3.244;2023-03-23T04:13:41;12.30;99.90
22813;DHT22;11573;51.334;3.244;2023-03-23T04:16:19;12.20;99.90
22813;DHT22;11573;51.334;3.244;2023-03-23T04:18:48;12.10;99.90
22813;DHT22;11573;51.334;3.244;2023-03-23T04:21:15;12.20;99.90
22813;DHT22;11573;51.334;3.244;2023-03-23T04:23:44;12.10;99.90
22813;DHT22;11573;51.334;3.244;2023-03-23T04:26:10;12.10;99.90
22813;DHT22;11573;51.334;3.244;2023-03-23T04:28:42;12.10;99.90
22813;DHT22;11573;51.334;3.244;2023-03-23T04:31:23;12.10;99.90
22813;DHT22;11573;51.334;3.244;2023-03-23T04:33:53;12.10;99.90
22813;DHT22;11573;51.334;3.244;2023-03-23T04:36:22;12.00;99.90
22813;DHT22;11573;51.334;3.244;2023-03-23T04:38:59;12.00;99.90
22813;DHT22;11573;51.334;3.244;2023-03-23T04:41:26;12.00;99.90
22813;DHT22;11573;51.334;3.244;2023-03-23T04:44:14;11.90;99.90
22813;DHT22;11573;51.334;3.244;2023-03-23T04:46:47;11.90;99.90
22813;DHT22;11573;51.334;3.244;2023-03-23T04:49:17;11.90;99.90
22813;DHT22;11573;51.334;3.244;2023-03-23T04:51:49;11.90;99.90
22813;DHT22;11573;51.334;3.244;2023-03-23T04:54:36;11.90;99.90
22813;DHT22;11573;51.334;3.244;2023-03-23T04:57:03;11.80;99.90
22813;DHT22;11573;51.334;3.244;2023-03-23T04:59:31;11.80;99.90
22813;DHT22;11573;51.334;3.244;2023-03-23T05:02:04;11.90;99.90
22813;DHT22;11573;51.334;3.244;2023-03-23T05:04:31;11.80;99.90
22813;DHT22;11573;51.334;3.244;2023-03-23T05:07:07;11.80;99.90
22813;DHT22;11573;51.334;3.244;2023-03-23T05:09:37;11.70;99.90
22813;DHT22;11573;51.334;3.244;2023-03-23T05:12:09;11.60;99.90
22813;DHT22;11573;51.334;3.244;2023-03-23T05:14:45;11.60;99.90
22813;DHT22;11573;51.334;3.244;2023-03-23T05:17:15;11.50;99.90
22813;DHT22;11573;51.334;3.244;2023-03-23T05:19:44;11.50;99.90
22813;DHT22;11573;51.334;3.244;2023-03-23T05:22:31;11.50;99.90
22813;DHT22;11573;51.334;3.244;2023-03-23T05:25:02;11.40;99.90
22813;DHT22;11573;51.334;3.244;2023-03-23T05:27:31;11.50;99.90
22813;DHT22;11573;51.334;3.244;2023-03-23T05:30:03;11.50;99.90
22813;DHT22;11573;51.334;3.244;2023-03-23T05:32:31;11.50;99.90
22813;DHT22;11573;51.334;3.244;2023-03-23T05:35:07;11.50;99.90
22813;DHT22;11573;51.334;3.244;2023-03-23T05:37:33;11.40;99.90
22813;DHT22;11573;51.334;3.244;2023-03-23T05:40:07;11.40;99.90
22813;DHT22;11573;51.334;3.244;2023-03-23T05:42:43;11.40;99.90
22813;DHT22;11573;51.334;3.244;2023-03-23T05:45:24;11.40;99.90
22813;DHT22;11573;51.334;3.244;2023-03-23T05:47:51;11.40;99.90
22813;DHT22;11573;51.334;3.244;2023-03-23T05:50:20;11.40;99.90
22813;DHT22;11573;51.334;3.244;2023-03-23T05:52:47;11.40;99.90
22813;DHT22;11573;51.334;3.244;2023-03-23T05:55:15;11.40;99.90
22813;DHT22;11573;51.334;3.244;2023-03-23T05:57:45;11.40;99.90
22813;DHT22;11573;51.334;3.244;2023-03-23T06:00:37;11.40;99.90
22813;DHT22;11573;51.334;3.244;2023-03-23T06:03:19;11.40;99.90
22813;DHT22;11573;51.334;3.244;2023-03-23T06:05:55;11.30;99.90
22813;DHT22;11573;51.334;3.244;2023-03-23T06:08:28;11.40;99.90
22813;DHT22;11573;51.334;3.244;2023-03-23T06:10:56;11.30;99.90
22813;DHT22;11573;51.334;3.244;2023-03-23T06:13:22;11.30;99.90
22813;DHT22;11573;51.334;3.244;2023-03-23T06:15:55;11.30;99.90
22813;DHT22;11573;51.334;3.244;2023-03-23T06:18:42;11.30;99.90
22813;DHT22;11573;51.334;3.244;2023-03-23T06:21:19;11.30;99.90
22813;DHT22;11573;51.334;3.244;2023-03-23T06:23:54;11.30;99.90
22813;DHT22;11573;51.334;3.244;2023-03-23T06:26:27;11.30;99.90
22813;DHT22;11573;51.334;3.244;2023-03-23T06:28:57;11.20;99.90
22813;DHT22;11573;51.334;3.244;2023-03-23T06:31:26;11.20;99.90
22813;DHT22;11573;51.334;3.244;2023-03-23T06:33:52;11.20;99.90
22813;DHT22;11573;51.334;3.244;2023-03-23T06:36:24;11.10;99.90
22813;DHT22;11573;51.334;3.244;2023-03-23T06:39:18;11.10;99.90
22813;DHT22;11573;51.334;3.244;2023-03-23T06:42:10;11.00;99.90
22813;DHT22;11573;51.334;3.244;2023-03-23T06:44:45;11.00;99.90
22813;DHT22;11573;51.334;3.244;2023-03-23T06:47:12;11.00;99.90
22813;DHT22;11573;51.334;3.244;2023-03-23T06:49:45;11.00;99.90
22813;DHT22;11573;51.334;3.244;2023-03-23T06:52:18;11.00;99.90
22813;DHT22;11573;51.334;3.244;2023-03-23T06:54:44;11.00;99.90
22813;DHT22;11573;51.334;3.244;2023-03-23T06:57:12;11.10;99.90
22813;DHT22;11573;51.334;3.244;2023-03-23T06:59:38;11.10;99.90
22813;DHT22;11573;51.334;3.244;2023-03-23T07:02:05;11.20;99.90
22813;DHT22;11573;51.334;3.244;2023-03-23T07:04:32;11.20;99.90
22813;DHT22;11573;51.334;3.244;2023-03-23T07:07:15;11.20;99.90
22813;DHT22;11573;51.334;3.244;2023-03-23T07:10:04;11.20;99.90
22813;DHT22;11573;51.334;3.244;2023-03-23T07:12:30;11.10;99.90
22813;DHT22;11573;51.334;3.244;2023-03-23T07:14:56;11.10;99.90
22813;DHT22;11573;51.334;3.244;2023-03-23T07:17:22;11.00;99.90
22813;DHT22;11573;51.334;3.244;2023-03-23T07:20:01;10.90;99.90
22813;DHT22;11573;51.334;3.244;2023-03-23T07:22:29;10.90;99.90
22813;DHT22;11573;51.334;3.244;2023-03-23T07:25:04;10.90;99.90
22813;DHT22;11573;51.334;3.244;2023-03-23T07:27:41;10.90;99.90
22813;DHT22;11573;51.334;3.244;2023-03-23T07:30:07;11.00;99.90
22813;DHT22;11573;51.334;3.244;2023-03-23T07:32:33;11.10;99.90
22813;DHT22;11573;51.334;3.244;2023-03-23T07:34:59;11.20;99.90
22813;DHT22;11573;51.334;3.244;2023-03-23T07:37:40;11.20;99.90
22813;DHT22;11573;51.334;3.244;2023-03-23T07:40:07;11.30;99.90
22813;DHT22;11573;51.334;3.244;2023-03-23T07:42:34;11.30;99.90
22813;DHT22;11573;51.334;3.244;2023-03-23T07:45:00;11.40;99.90
22813;DHT22;11573;51.334;3.244;2023-03-23T07:47:26;11.40;99.90
22813;DHT22;11573;51.334;3.244;2023-03-23T07:49:53;11.60;99.90
22813;DHT22;11573;51.334;3.244;2023-03-23T07:52:31;11.60;99.90
22813;DHT22;11573;51.334;3.244;2023-03-23T07:54:59;11.80;99.90
22813;DHT22;11573;51.334;3.244;2023-03-23T07:57:59;11.70;99.90
22813;DHT22;11573;51.334;3.244;2023-03-23T08:00:25;11.80;99.90
22813;DHT22;11573;51.334;3.244;2023-03-23T08:02:56;11.90;99.90
22813;DHT22;11573;51.334;3.244;2023-03-23T08:05:31;11.90;99.90
22813;DHT22;11573;51.334;3.244;2023-03-23T08:08:18;12.10;99.90
22813;DHT22;11573;51.334;3.244;2023-03-23T08:11:19;12.20;99.90
22813;DHT22;11573;51.334;3.244;2023-03-23T08:14:06;12.20;99.90
22813;DHT22;11573;51.334;3.244;2023-03-23T08:16:55;12.20;99.90
22813;DHT22;11573;51.334;3.244;2023-03-23T08:19:40;12.40;99.90
22813;DHT22;11573;51.334;3.244;2023-03-23T08:22:42;12.50;99.90
22813;DHT22;11573;51.334;3.244;2023-03-23T08:25:30;12.40;99.90
22813;DHT22;11573;51.334;3.244;2023-03-23T08:28:25;12.30;99.90
22813;DHT22;11573;51.334;3.244;2023-03-23T08:31:14;12.30;99.90
22813;DHT22;11573;51.334;3.244;2023-03-23T08:33:52;12.30;99.90
22813;DHT22;11573;51.334;3.244;2023-03-23T08:36:44;12.30;99.90
22813;DHT22;11573;51.334;3.244;2023-03-23T08:39:22;12.40;99.90
22813;DHT22;11573;51.334;3.244;2023-03-23T08:42:11;12.40;99.90
22813;DHT22;11573;51.334;3.244;2023-03-23T08:45:12;12.50;99.90
22813;DHT22;11573;51.334;3.244;2023-03-23T08:47:52;12.50;99.90
22813;DHT22;11573;51.334;3.244;2023-03-23T08:50:28;12.70;99.90
22813;DHT22;11573;51.334;3.244;2023-03-23T08:53:04;12.80;99.90
22813;DHT22;11573;51.334;3.244;2023-03-23T08:55:54;12.90;99.90
22813;DHT22;11573;51.334;3.244;2023-03-23T08:58:42;13.10;99.90
22813;DHT22;11573;51.334;3.244;2023-03-23T09:01:15;13.30;99.90
22813;DHT22;11573;51.334;3.244;2023-03-23T09:03:50;13.50;99.90
22813;DHT22;11573;51.334;3.244;2023-03-23T09:06:38;13.80;99.90
22813;DHT22;11573;51.334;3.244;2023-03-23T09:09:04;14.00;99.90
22813;DHT22;11573;51.334;3.244;2023-03-23T09:11:33;13.80;99.90
22813;DHT22;11573;51.334;3.244;2023-03-23T09:14:01;13.90;99.90
22813;DHT22;11573;51.334;3.244;2023-03-23T09:16:27;14.00;99.90
22813;DHT22;11573;51.334;3.244;2023-03-23T09:18:54;14.00;99.90
22813;DHT22;11573;51.334;3.244;2023-03-23T09:21:23;14.20;99.90
22813;DHT22;11573;51.334;3.244;2023-03-23T09:23:49;14.30;99.90
22813;DHT22;11573;51.334;3.244;2023-03-23T09:26:15;14.30;99.90
22813;DHT22;11573;51.334;3.244;2023-03-23T09:28:41;14.50;99.90
22813;DHT22;11573;51.334;3.244;2023-03-23T09:31:10;14.60;99.90
22813;DHT22;11573;51.334;3.244;2023-03-23T09:33:37;14.60;99.90
22813;DHT22;11573;51.334;3.244;2023-03-23T09:36:03;14.80;99.90
22813;DHT22;11573;51.334;3.244;2023-03-23T09:38:31;15.00;99.90
22813;DHT22;11573;51.334;3.244;2023-03-23T09:41:28;14.90;99.90
22813;DHT22;11573;51.334;3.244;2023-03-23T09:44:02;14.30;99.90
22813;DHT22;11573;51.334;3.244;2023-03-23T09:49:29;14.00;99.90
22813;DHT22;11573;51.334;3.244;2023-03-23T09:52:01;14.10;99.90
22813;DHT22;11573;51.334;3.244;2023-03-23T09:54:37;14.10;99.90
22813;DHT22;11573;51.334;3.244;2023-03-23T09:57:10;14.20;99.90
22813;DHT22;11573;51.334;3.244;2023-03-23T09:59:55;14.20;99.90
22813;DHT22;11573;51.334;3.244;2023-03-23T10:02:43;14.20;99.90
22813;DHT22;11573;51.334;3.244;2023-03-23T10:07:59;15.10;99.90
22813;DHT22;11573;51.334;3.244;2023-03-23T10:10:35;14.80;99.90
22813;DHT22;11573;51.334;3.244;2023-03-23T10:15:46;14.30;99.90
22813;DHT22;11573;51.334;3.244;2023-03-23T10:18:49;14.30;99.90
22813;DHT22;11573;51.334;3.244;2023-03-23T10:21:22;14.20;99.90
22813;DHT22;11573;51.334;3.244;2023-03-23T10:24:01;14.40;99.90
22813;DHT22;11573;51.334;3.244;2023-03-23T10:29:29;14.60;99.90
22813;DHT22;11573;51.334;3.244;2023-03-23T10:32:00;14.70;99.90
22813;DHT22;11573;51.334;3.244;2023-03-23T10:37:11;15.00;99.90
22813;DHT22;11573;51.334;3.244;2023-03-23T10:39:47;14.90;99.90
22813;DHT22;11573;51.334;3.244;2023-03-23T10:42:31;14.60;99.90
22813;DHT22;11573;51.334;3.244;2023-03-23T10:45:00;14.30;99.90
22813;DHT22;11573;51.334;3.244;2023-03-23T10:47:26;14.00;99.90
22813;DHT22;11573;51.334;3.244;2023-03-23T10:49:59;14.00;99.90
22813;DHT22;11573;51.334;3.244;2023-03-23T10:52:39;14.40;99.90
22813;DHT22;11573;51.334;3.244;2023-03-23T10:57:36;14.50;99.90
22813;DHT22;11573;51.334;3.244;2023-03-23T11:00:23;14.40;99.90
22813;DHT22;11573;51.334;3.244;2023-03-23T11:03:06;14.30;99.90
22813;DHT22;11573;51.334;3.244;2023-03-23T11:06:01;14.10;99.90
22813;DHT22;11573;51.334;3.244;2023-03-23T11:08:32;13.90;99.90
22813;DHT22;11573;51.334;3.244;2023-03-23T11:11:15;13.80;99.90
22813;DHT22;11573;51.334;3.244;2023-03-23T11:13:46;13.80;99.90
22813;DHT22;11573;51.334;3.244;2023-03-23T11:16:23;13.90;99.90
22813;DHT22;11573;51.334;3.244;2023-03-23T11:18:49;14.10;99.90
22813;DHT22;11573;51.334;3.244;2023-03-23T11:21:15;14.10;99.90
22813;DHT22;11573;51.334;3.244;2023-03-23T11:23:47;14.20;99.90
22813;DHT22;11573;51.334;3.244;2023-03-23T11:26:27;14.20;99.90
22813;DHT22;11573;51.334;3.244;2023-03-23T11:29:09;14.30;99.90
22813;DHT22;11573;51.334;3.244;2023-03-23T11:31:42;14.30;99.90
22813;DHT22;11573;51.334;3.244;2023-03-23T11:37:03;14.20;99.90
22813;DHT22;11573;51.334;3.244;2023-03-23T11:39:33;14.20;99.90
22813;DHT22;11573;51.334;3.244;2023-03-23T11:42:19;14.20;99.90
22813;DHT22;11573;51.334;3.244;2023-03-23T11:44:46;14.40;99.90
22813;DHT22;11573;51.334;3.244;2023-03-23T11:47:35;14.80;99.90
22813;DHT22;11573;51.334;3.244;2023-03-23T11:55:51;15.40;99.90
22813;DHT22;11573;51.334;3.244;2023-03-23T11:58:21;15.10;99.90
22813;DHT22;11573;51.334;3.244;2023-03-23T12:00:57;15.10;99.90
22813;DHT22;11573;51.334;3.244;2023-03-23T12:12:04;15.50;99.90
22813;DHT22;11573;51.334;3.244;2023-03-23T12:14:46;15.70;99.90
22813;DHT22;11573;51.334;3.244;2023-03-23T12:17:33;15.80;99.90
22813;DHT22;11573;51.334;3.244;2023-03-23T12:22:59;15.60;99.90
22813;DHT22;11573;51.334;3.244;2023-03-23T12:33:33;14.70;99.90
22813;DHT22;11573;51.334;3.244;2023-03-23T12:36:15;14.30;99.90
22813;DHT22;11573;51.334;3.244;2023-03-23T12:41:27;15.00;99.90
22813;DHT22;11573;51.334;3.244;2023-03-23T12:44:20;15.20;99.90
22813;DHT22;11573;51.334;3.244;2023-03-23T12:49:34;15.00;99.90
22813;DHT22;11573;51.334;3.244;2023-03-23T12:52:10;15.00;99.90
22813;DHT22;11573;51.334;3.244;2023-03-23T12:57:37;15.90;99.90
22813;DHT22;11573;51.334;3.244;2023-03-23T13:00:23;16.30;99.90
22813;DHT22;11573;51.334;3.244;2023-03-23T13:03:03;16.20;99.90
22813;DHT22;11573;51.334;3.244;2023-03-23T13:05:38;15.90;99.90
22813;DHT22;11573;51.334;3.244;2023-03-23T13:08:16;15.60;99.90
22813;DHT22;11573;51.334;3.244;2023-03-23T13:10:49;15.40;99.90
22813;DHT22;11573;51.334;3.244;2023-03-23T13:13:24;15.70;99.90
22813;DHT22;11573;51.334;3.244;2023-03-23T13:16:42;15.90;99.90
22813;DHT22;11573;51.334;3.244;2023-03-23T13:19:23;16.20;99.90
22813;DHT22;11573;51.334;3.244;2023-03-23T13:21:51;16.30;99.90
22813;DHT22;11573;51.334;3.244;2023-03-23T13:24:21;16.10;99.90
22813;DHT22;11573;51.334;3.244;2023-03-23T13:26:50;16.20;99.90
22813;DHT22;11573;51.334;3.244;2023-03-23T13:29:21;16.30;99.90
22813;DHT22;11573;51.334;3.244;2023-03-23T13:31:50;16.40;99.90
22813;DHT22;11573;51.334;3.244;2023-03-23T13:34:25;16.70;99.90
22813;DHT22;11573;51.334;3.244;2023-03-23T13:39:32;16.70;99.90
22813;DHT22;11573;51.334;3.244;2023-03-23T13:42:23;16.20;99.90
22813;DHT22;11573;51.334;3.244;2023-03-23T13:50:11;15.40;99.90
22813;DHT22;11573;51.334;3.244;2023-03-23T13:55:20;15.40;99.90
22813;DHT22;11573;51.334;3.244;2023-03-23T14:10:59;15.80;99.90
22813;DHT22;11573;51.334;3.244;2023-03-23T14:18:54;15.60;99.90
22813;DHT22;11573;51.334;3.244;2023-03-23T14:21:50;15.70;99.90
22813;DHT22;11573;51.334;3.244;2023-03-23T14:24:38;16.00;99.90
22813;DHT22;11573;51.334;3.244;2023-03-23T14:29:30;16.00;99.90
22813;DHT22;11573;51.334;3.244;2023-03-23T14:31:58;15.90;99.90
22813;DHT22;11573;51.334;3.244;2023-03-23T14:34:26;16.00;99.90
22813;DHT22;11573;51.334;3.244;2023-03-23T14:36:54;16.20;99.90
22813;DHT22;11573;51.334;3.244;2023-03-23T14:39:31;16.50;99.90
22813;DHT22;11573;51.334;3.244;2023-03-23T14:42:09;16.70;99.90
22813;DHT22;11573;51.334;3.244;2023-03-23T14:44:48;16.60;99.90
22813;DHT22;11573;51.334;3.244;2023-03-23T14:47:30;16.80;99.90
22813;DHT22;11573;51.334;3.244;2023-03-23T14:50:03;16.90;99.90
22813;DHT22;11573;51.334;3.244;2023-03-23T14:52:34;17.10;99.90
22813;DHT22;11573;51.334;3.244;2023-03-23T14:55:27;16.90;99.90
22813;DHT22;11573;51.334;3.244;2023-03-23T14:58:06;16.90;99.90
22813;DHT22;11573;51.334;3.244;2023-03-23T15:00:38;16.80;99.90
22813;DHT22;11573;51.334;3.244;2023-03-23T15:03:06;16.70;99.90
22813;DHT22;11573;51.334;3.244;2023-03-23T15:05:38;16.40;99.90
22813;DHT22;11573;51.334;3.244;2023-03-23T15:08:11;16.30;99.90
22813;DHT22;11573;51.334;3.244;2023-03-23T15:10:38;16.20;99.90
22813;DHT22;11573;51.334;3.244;2023-03-23T15:13:04;16.20;99.90
22813;DHT22;11573;51.334;3.244;2023-03-23T15:15:34;16.20;99.90
22813;DHT22;11573;51.334;3.244;2023-03-23T15:18:02;16.30;99.90
22813;DHT22;11573;51.334;3.244;2023-03-23T15:20:32;16.30;99.90
22813;DHT22;11573;51.334;3.244;2023-03-23T15:23:15;16.40;99.90
22813;DHT22;11573;51.334;3.244;2023-03-23T15:25:51;16.40;99.90
22813;DHT22;11573;51.334;3.244;2023-03-23T15:28:19;16.50;99.90
22813;DHT22;11573;51.334;3.244;2023-03-23T15:30:52;16.50;99.90
22813;DHT22;11573;51.334;3.244;2023-03-23T15:33:19;16.30;99.90
22813;DHT22;11573;51.334;3.244;2023-03-23T15:35:52;16.30;99.90
22813;DHT22;11573;51.334;3.244;2023-03-23T15:38:24;16.30;99.90
22813;DHT22;11573;51.334;3.244;2023-03-23T15:40:56;16.40;99.90
22813;DHT22;11573;51.334;3.244;2023-03-23T15:43:34;16.20;99.90
22813;DHT22;11573;51.334;3.244;2023-03-23T15:46:21;16.40;99.90
22813;DHT22;11573;51.334;3.244;2023-03-23T15:51:22;17.00;99.90
22813;DHT22;11573;51.334;3.244;2023-03-23T15:53:53;17.00;99.90
22813;DHT22;11573;51.334;3.244;2023-03-23T15:56:19;16.90;99.90
22813;DHT22;11573;51.334;3.244;2023-03-23T15:58:46;16.90;99.90
22813;DHT22;11573;51.334;3.244;2023-03-23T16:01:16;16.80;99.90
22813;DHT22;11573;51.334;3.244;2023-03-23T16:06:20;16.60;99.90
22813;DHT22;11573;51.334;3.244;2023-03-23T16:08:51;16.50;99.90
22813;DHT22;11573;51.334;3.244;2023-03-23T16:11:22;16.50;99.90
22813;DHT22;11573;51.334;3.244;2023-03-23T16:13:49;16.50;99.90
22813;DHT22;11573;51.334;3.244;2023-03-23T16:16:46;16.40;99.90
22813;DHT22;11573;51.334;3.244;2023-03-23T16:19:17;16.40;99.90
22813;DHT22;11573;51.334;3.244;2023-03-23T16:21:46;16.40;99.90
22813;DHT22;11573;51.334;3.244;2023-03-23T16:24:12;16.40;99.90
22813;DHT22;11573;51.334;3.244;2023-03-23T16:26:39;16.30;99.90
22813;DHT22;11573;51.334;3.244;2023-03-23T16:29:12;16.30;99.90
22813;DHT22;11573;51.334;3.244;2023-03-23T16:31:54;16.10;99.90
22813;DHT22;11573;51.334;3.244;2023-03-23T16:34:21;15.90;99.90
22813;DHT22;11573;51.334;3.244;2023-03-23T16:36:48;15.90;99.90
22813;DHT22;11573;51.334;3.244;2023-03-23T16:39:15;15.70;99.90
22813;DHT22;11573;51.334;3.244;2023-03-23T16:41:44;15.30;99.90
22813;DHT22;11573;51.334;3.244;2023-03-23T16:44:11;15.00;99.90
22813;DHT22;11573;51.334;3.244;2023-03-23T16:46:38;14.90;99.90
22813;DHT22;11573;51.334;3.244;2023-03-23T16:49:05;14.80;99.90
22813;DHT22;11573;51.334;3.244;2023-03-23T16:51:32;14.80;99.90
22813;DHT22;11573;51.334;3.244;2023-03-23T16:53:59;14.80;99.90
22813;DHT22;11573;51.334;3.244;2023-03-23T16:56:26;14.80;99.90
22813;DHT22;11573;51.334;3.244;2023-03-23T16:58:53;14.80;99.90
22813;DHT22;11573;51.334;3.244;2023-03-23T17:01:20;14.80;99.90
22813;DHT22;11573;51.334;3.244;2023-03-23T17:03:47;14.70;99.90
22813;DHT22;11573;51.334;3.244;2023-03-23T17:06:14;14.70;99.90
22813;DHT22;11573;51.334;3.244;2023-03-23T17:08:41;14.70;99.90
22813;DHT22;11573;51.334;3.244;2023-03-23T17:11:09;14.70;99.90
22813;DHT22;11573;51.334;3.244;2023-03-23T17:13:36;14.60;99.90
22813;DHT22;11573;51.334;3.244;2023-03-23T17:16:04;14.60;99.90
22813;DHT22;11573;51.334;3.244;2023-03-23T17:18:31;14.50;99.90
22813;DHT22;11573;51.334;3.244;2023-03-23T17:20:58;14.50;99.90
22813;DHT22;11573;51.334;3.244;2023-03-23T17:23:25;14.40;99.90
22813;DHT22;11573;51.334;3.244;2023-03-23T17:25:52;14.40;99.90
22813;DHT22;11573;51.334;3.244;2023-03-23T17:28:19;14.40;99.90
22813;DHT22;11573;51.334;3.244;2023-03-23T17:30:47;14.40;99.90
22813;DHT22;11573;51.334;3.244;2023-03-23T17:33:14;14.30;99.90
22813;DHT22;11573;51.334;3.244;2023-03-23T17:35:41;14.20;99.90
22813;DHT22;11573;51.334;3.244;2023-03-23T17:38:09;14.20;99.90
22813;DHT22;11573;51.334;3.244;2023-03-23T17:40:36;14.10;99.90
22813;DHT22;11573;51.334;3.244;2023-03-23T17:43:03;14.10;99.90
22813;DHT22;11573;51.334;3.244;2023-03-23T17:45:30;14.10;99.90
22813;DHT22;11573;51.334;3.244;2023-03-23T17:47:57;14.00;99.90
22813;DHT22;11573;51.334;3.244;2023-03-23T17:50:25;14.00;99.90
22813;DHT22;11573;51.334;3.244;2023-03-23T17:52:52;13.90;99.90
22813;DHT22;11573;51.334;3.244;2023-03-23T17:55:19;13.90;99.90
22813;DHT22;11573;51.334;3.244;2023-03-23T17:57:46;13.90;99.90
22813;DHT22;11573;51.334;3.244;2023-03-23T18:00:13;13.80;99.90
22813;DHT22;11573;51.334;3.244;2023-03-23T18:02:40;13.80;99.90